sensor_id;sensor_type;location;lat;lon;timestamp;temperature;humidity
19017;DHT22;9641;51.494;6.670;2024-01-11T00:00:25;-4.20;1.00
19017;DHT22;9641;51.494;6.670;2024-01-11T00:02:51;-4.20;1.00
19017;DHT22;9641;51.494;6.670;2024-01-11T00:05:18;-4.20;1.00
19017;DHT22;9641;51.494;6.670;2024-01-11T00:07:45;-4.20;1.00
19017;DHT22;9641;51.494;6.670;2024-01-11T00:10:12;-4.30;1.00
19017;DHT22;9641;51.494;6.670;2024-01-11T00:12:39;-4.30;1.00
19017;DHT22;9641;51.494;6.670;2024-01-11T00:15:06;-4.40;1.00
19017;DHT22;9641;51.494;6.670;2024-01-11T00:17:34;-4.40;1.00
19017;DHT22;9641;51.494;6.670;2024-01-11T00:20:01;-4.40;1.00
19017;DHT22;9641;51.494;6.670;2024-01-11T00:22:28;-4.50;1.00
19017;DHT22;9641;51.494;6.670;2024-01-11T00:24:54;-4.60;1.00
19017;DHT22;9641;51.494;6.670;2024-01-11T00:27:21;-4.60;1.00
19017;DHT22;9641;51.494;6.670;2024-01-11T00:29:48;-4.60;1.00
19017;DHT22;9641;51.494;6.670;2024-01-11T00:32:15;-4.70;19.20
19017;DHT22;9641;51.494;6.670;2024-01-11T00:34:43;-4.70;60.00
19017;DHT22;9641;51.494;6.670;2024-01-11T00:37:10;-4.70;99.90
19017;DHT22;9641;51.494;6.670;2024-01-11T00:39:36;-4.70;99.90
19017;DHT22;9641;51.494;6.670;2024-01-11T00:42:04;-4.70;99.90
19017;DHT22;9641;51.494;6.670;2024-01-11T00:44:31;-4.70;99.90
19017;DHT22;9641;51.494;6.670;2024-01-11T00:46:58;-4.70;99.90
19017;DHT22;9641;51.494;6.670;2024-01-11T00:49:25;-4.70;99.90
19017;DHT22;9641;51.494;6.670;2024-01-11T00:51:53;-4.80;99.90
19017;DHT22;9641;51.494;6.670;2024-01-11T00:54:20;-4.70;99.90
19017;DHT22;9641;51.494;6.670;2024-01-11T00:56:47;-4.70;99.90
19017;DHT22;9641;51.494;6.670;2024-01-11T00:59:14;-4.70;99.90
19017;DHT22;9641;51.494;6.670;2024-01-11T01:01:47;-4.70;99.90
19017;DHT22;9641;51.494;6.670;2024-01-11T01:04:13;-4.60;99.90
19017;DHT22;9641;51.494;6.670;2024-01-11T01:06:41;-4.60;99.90
19017;DHT22;9641;51.494;6.670;2024-01-11T01:09:10;-4.60;99.90
19017;DHT22;9641;51.494;6.670;2024-01-11T01:11:37;-4.60;99.90
19017;DHT22;9641;51.494;6.670;2024-01-11T01:14:04;-4.70;99.90
19017;DHT22;9641;51.494;6.670;2024-01-11T01:16:31;-4.70;99.90
19017;DHT22;9641;51.494;6.670;2024-01-11T01:18:58;-4.70;99.90
19017;DHT22;9641;51.494;6.670;2024-01-11T01:21:25;-4.70;99.90
19017;DHT22;9641;51.494;6.670;2024-01-11T01:23:52;-4.60;99.90
19017;DHT22;9641;51.494;6.670;2024-01-11T01:26:20;-4.60;99.90
19017;DHT22;9641;51.494;6.670;2024-01-11T01:28:47;-4.70;99.90
19017;DHT22;9641;51.494;6.670;2024-01-11T01:31:14;-4.70;99.90
19017;DHT22;9641;51.494;6.670;2024-01-11T01:33:40;-4.80;99.90
19017;DHT22;9641;51.494;6.670;2024-01-11T01:36:09;-4.90;99.90
19017;DHT22;9641;51.494;6.670;2024-01-11T01:38:36;-5.00;99.90
19017;DHT22;9641;51.494;6.670;2024-01-11T01:41:03;-5.10;99.90
19017;DHT22;9641;51.494;6.670;2024-01-11T01:43:31;-5.20;99.90
19017;DHT22;9641;51.494;6.670;2024-01-11T01:45:58;-5.30;99.90
19017;DHT22;9641;51.494;6.670;2024-01-11T01:48:25;-5.20;99.90
19017;DHT22;9641;51.494;6.670;2024-01-11T01:50:53;-5.20;99.90
19017;DHT22;9641;51.494;6.670;2024-01-11T01:53:22;-5.20;99.90
19017;DHT22;9641;51.494;6.670;2024-01-11T01:55:51;-5.20;99.90
19017;DHT22;9641;51.494;6.670;2024-01-11T01:58:19;-5.30;99.90
19017;DHT22;9641;51.494;6.670;2024-01-11T02:00:49;-5.30;99.90
19017;DHT22;9641;51.494;6.670;2024-01-11T02:03:17;-5.40;99.90
19017;DHT22;9641;51.494;6.670;2024-01-11T02:05:45;-5.40;99.90
19017;DHT22;9641;51.494;6.670;2024-01-11T02:08:15;-5.40;99.90
19017;DHT22;9641;51.494;6.670;2024-01-11T02:10:43;-5.50;99.90
19017;DHT22;9641;51.494;6.670;2024-01-11T02:13:11;-5.60;99.90
19017;DHT22;9641;51.494;6.670;2024-01-11T02:15:37;-5.60;99.90
19017;DHT22;9641;51.494;6.670;2024-01-11T02:18:06;-5.50;99.90
19017;DHT22;9641;51.494;6.670;2024-01-11T02:20:33;-5.50;99.90
19017;DHT22;9641;51.494;6.670;2024-01-11T02:23:05;-5.40;99.90
19017;DHT22;9641;51.494;6.670;2024-01-11T02:25:34;-5.40;99.90
19017;DHT22;9641;51.494;6.670;2024-01-11T02:28:01;-5.30;99.90
19017;DHT22;9641;51.494;6.670;2024-01-11T02:30:29;-5.30;99.90
19017;DHT22;9641;51.494;6.670;2024-01-11T02:32:56;-5.30;99.90
19017;DHT22;9641;51.494;6.670;2024-01-11T02:35:23;-5.30;99.90
19017;DHT22;9641;51.494;6.670;2024-01-11T02:37:51;-5.30;99.90
19017;DHT22;9641;51.494;6.670;2024-01-11T02:40:19;-5.20;99.90
19017;DHT22;9641;51.494;6.670;2024-01-11T02:42:47;-5.20;99.90
19017;DHT22;9641;51.494;6.670;2024-01-11T02:45:14;-5.20;99.90
19017;DHT22;9641;51.494;6.670;2024-01-11T02:47:41;-5.20;99.90
19017;DHT22;9641;51.494;6.670;2024-01-11T02:50:08;-5.20;99.90
19017;DHT22;9641;51.494;6.670;2024-01-11T02:52:37;-5.10;99.90
19017;DHT22;9641;51.494;6.670;2024-01-11T02:55:04;-5.10;99.90
19017;DHT22;9641;51.494;6.670;2024-01-11T02:57:31;-5.10;99.90
19017;DHT22;9641;51.494;6.670;2024-01-11T02:59:59;-5.10;99.90
19017;DHT22;9641;51.494;6.670;2024-01-11T03:02:26;-5.10;99.90
19017;DHT22;9641;51.494;6.670;2024-01-11T03:04:53;-5.10;99.90
19017;DHT22;9641;51.494;6.670;2024-01-11T03:07:20;-5.10;99.90
19017;DHT22;9641;51.494;6.670;2024-01-11T03:09:46;-5.10;99.90
19017;DHT22;9641;51.494;6.670;2024-01-11T03:12:14;-5.20;99.90
19017;DHT22;9641;51.494;6.670;2024-01-11T03:14:41;-5.20;99.90
19017;DHT22;9641;51.494;6.670;2024-01-11T03:17:09;-5.20;99.90
19017;DHT22;9641;51.494;6.670;2024-01-11T03:19:39;-5.30;99.90
19017;DHT22;9641;51.494;6.670;2024-01-11T03:22:06;-5.30;99.90
19017;DHT22;9641;51.494;6.670;2024-01-11T03:24:33;-5.30;99.90
19017;DHT22;9641;51.494;6.670;2024-01-11T03:26:59;-5.20;99.90
19017;DHT22;9641;51.494;6.670;2024-01-11T03:29:26;-5.20;99.90
19017;DHT22;9641;51.494;6.670;2024-01-11T03:31:53;-5.20;99.90
19017;DHT22;9641;51.494;6.670;2024-01-11T03:34:21;-5.30;99.90
19017;DHT22;9641;51.494;6.670;2024-01-11T03:36:49;-5.30;99.90
19017;DHT22;9641;51.494;6.670;2024-01-11T03:39:16;-5.40;99.90
19017;DHT22;9641;51.494;6.670;2024-01-11T03:41:44;-5.50;99.90
19017;DHT22;9641;51.494;6.670;2024-01-11T03:44:11;-5.50;99.90
19017;DHT22;9641;51.494;6.670;2024-01-11T03:46:38;-5.60;99.90
19017;DHT22;9641;51.494;6.670;2024-01-11T03:49:05;-5.70;99.90
19017;DHT22;9641;51.494;6.670;2024-01-11T03:51:34;-5.70;99.90
19017;DHT22;9641;51.494;6.670;2024-01-11T03:54:01;-5.70;99.90
19017;DHT22;9641;51.494;6.670;2024-01-11T03:56:28;-5.80;99.90
19017;DHT22;9641;51.494;6.670;2024-01-11T03:58:55;-5.80;99.90
19017;DHT22;9641;51.494;6.670;2024-01-11T04:01:21;-5.80;99.90
19017;DHT22;9641;51.494;6.670;2024-01-11T04:03:48;-5.70;99.90
19017;DHT22;9641;51.494;6.670;2024-01-11T04:06:20;-5.70;99.90
19017;DHT22;9641;51.494;6.670;2024-01-11T04:08:49;-5.70;99.90
19017;DHT22;9641;51.494;6.670;2024-01-11T04:11:16;-5.70;99.90
19017;DHT22;9641;51.494;6.670;2024-01-11T04:13:43;-5.70;99.90
19017;DHT22;9641;51.494;6.670;2024-01-11T04:16:10;-5.60;99.90
19017;DHT22;9641;51.494;6.670;2024-01-11T04:18:37;-5.60;99.90
19017;DHT22;9641;51.494;6.670;2024-01-11T04:21:04;-5.50;99.90
19017;DHT22;9641;51.494;6.670;2024-01-11T04:23:31;-5.60;99.90
19017;DHT22;9641;51.494;6.670;2024-01-11T04:25:59;-5.60;99.90
19017;DHT22;9641;51.494;6.670;2024-01-11T04:28:26;-5.60;99.90
19017;DHT22;9641;51.494;6.670;2024-01-11T04:30:53;-5.60;99.90
19017;DHT22;9641;51.494;6.670;2024-01-11T04:33:20;-5.70;99.90
19017;DHT22;9641;51.494;6.670;2024-01-11T04:35:47;-5.60;99.90
19017;DHT22;9641;51.494;6.670;2024-01-11T04:38:14;-5.60;99.90
19017;DHT22;9641;51.494;6.670;2024-01-11T04:40:40;-5.70;99.90
19017;DHT22;9641;51.494;6.670;2024-01-11T04:43:09;-5.70;99.90
19017;DHT22;9641;51.494;6.670;2024-01-11T04:45:36;-5.70;99.90
19017;DHT22;9641;51.494;6.670;2024-01-11T04:48:04;-5.70;99.90
19017;DHT22;9641;51.494;6.670;2024-01-11T04:50:30;-5.70;99.90
19017;DHT22;9641;51.494;6.670;2024-01-11T04:52:57;-5.70;99.90
19017;DHT22;9641;51.494;6.670;2024-01-11T04:55:24;-5.70;99.90
19017;DHT22;9641;51.494;6.670;2024-01-11T04:57:51;-5.70;99.90
19017;DHT22;9641;51.494;6.670;2024-01-11T05:00:19;-5.70;99.90
19017;DHT22;9641;51.494;6.670;2024-01-11T05:02:46;-5.70;99.90
19017;DHT22;9641;51.494;6.670;2024-01-11T05:05:13;-5.80;99.90
19017;DHT22;9641;51.494;6.670;2024-01-11T05:07:40;-5.80;99.90
19017;DHT22;9641;51.494;6.670;2024-01-11T05:10:08;-5.70;99.90
19017;DHT22;9641;51.494;6.670;2024-01-11T05:12:35;-5.80;99.90
19017;DHT22;9641;51.494;6.670;2024-01-11T05:15:05;-5.80;99.90
19017;DHT22;9641;51.494;6.670;2024-01-11T05:17:35;-5.80;99.90
19017;DHT22;9641;51.494;6.670;2024-01-11T05:20:02;-5.80;99.90
19017;DHT22;9641;51.494;6.670;2024-01-11T05:22:28;-5.80;99.90
19017;DHT22;9641;51.494;6.670;2024-01-11T05:24:55;-5.80;99.90
19017;DHT22;9641;51.494;6.670;2024-01-11T05:27:22;-5.80;99.90
19017;DHT22;9641;51.494;6.670;2024-01-11T05:29:49;-5.90;99.90
19017;DHT22;9641;51.494;6.670;2024-01-11T05:32:16;-5.90;99.90
19017;DHT22;9641;51.494;6.670;2024-01-11T05:34:44;-5.90;99.90
19017;DHT22;9641;51.494;6.670;2024-01-11T05:37:11;-5.90;99.90
19017;DHT22;9641;51.494;6.670;2024-01-11T05:39:37;-5.90;99.90
19017;DHT22;9641;51.494;6.670;2024-01-11T05:42:05;-5.90;99.90
19017;DHT22;9641;51.494;6.670;2024-01-11T05:44:32;-6.00;99.90
19017;DHT22;9641;51.494;6.670;2024-01-11T05:46:59;-6.00;99.90
19017;DHT22;9641;51.494;6.670;2024-01-11T05:49:26;-6.00;99.90
19017;DHT22;9641;51.494;6.670;2024-01-11T05:51:54;-6.00;99.90
19017;DHT22;9641;51.494;6.670;2024-01-11T05:54:21;-6.00;99.90
19017;DHT22;9641;51.494;6.670;2024-01-11T05:56:47;-6.10;99.90
19017;DHT22;9641;51.494;6.670;2024-01-11T05:59:15;-6.10;99.90
19017;DHT22;9641;51.494;6.670;2024-01-11T06:01:42;-6.10;99.90
19017;DHT22;9641;51.494;6.670;2024-01-11T06:04:09;-6.20;99.90
19017;DHT22;9641;51.494;6.670;2024-01-11T06:06:36;-6.20;99.90
19017;DHT22;9641;51.494;6.670;2024-01-11T06:09:04;-6.30;99.90
19017;DHT22;9641;51.494;6.670;2024-01-11T06:11:31;-6.30;99.90
19017;DHT22;9641;51.494;6.670;2024-01-11T06:13:58;-6.40;99.90
19017;DHT22;9641;51.494;6.670;2024-01-11T06:16:26;-6.40;99.90
19017;DHT22;9641;51.494;6.670;2024-01-11T06:18:53;-6.40;99.90
19017;DHT22;9641;51.494;6.670;2024-01-11T06:21:19;-6.40;99.90
19017;DHT22;9641;51.494;6.670;2024-01-11T06:23:46;-6.30;99.90
19017;DHT22;9641;51.494;6.670;2024-01-11T06:26:15;-6.40;99.90
19017;DHT22;9641;51.494;6.670;2024-01-11T06:28:42;-6.40;99.90
19017;DHT22;9641;51.494;6.670;2024-01-11T06:31:09;-6.40;99.90
19017;DHT22;9641;51.494;6.670;2024-01-11T06:33:37;-6.40;99.90
19017;DHT22;9641;51.494;6.670;2024-01-11T06:36:06;-6.30;99.90
19017;DHT22;9641;51.494;6.670;2024-01-11T06:38:33;-6.30;99.90
19017;DHT22;9641;51.494;6.670;2024-01-11T06:40:59;-6.20;99.90
19017;DHT22;9641;51.494;6.670;2024-01-11T06:43:28;-6.30;99.90
19017;DHT22;9641;51.494;6.670;2024-01-11T06:45:54;-6.30;99.90
19017;DHT22;9641;51.494;6.670;2024-01-11T06:48:21;-6.30;99.90
19017;DHT22;9641;51.494;6.670;2024-01-11T06:50:48;-6.30;99.90
19017;DHT22;9641;51.494;6.670;2024-01-11T06:53:15;-6.20;99.90
19017;DHT22;9641;51.494;6.670;2024-01-11T06:55:42;-6.20;99.90
19017;DHT22;9641;51.494;6.670;2024-01-11T06:58:09;-6.20;99.90
19017;DHT22;9641;51.494;6.670;2024-01-11T07:00:37;-6.10;99.90
19017;DHT22;9641;51.494;6.670;2024-01-11T07:03:08;-6.10;99.90
19017;DHT22;9641;51.494;6.670;2024-01-11T07:05:36;-6.20;99.90
19017;DHT22;9641;51.494;6.670;2024-01-11T07:08:03;-6.20;99.90
19017;DHT22;9641;51.494;6.670;2024-01-11T07:10:30;-6.20;99.90
19017;DHT22;9641;51.494;6.670;2024-01-11T07:12:57;-6.20;99.90
19017;DHT22;9641;51.494;6.670;2024-01-11T07:15:24;-6.20;99.90
19017;DHT22;9641;51.494;6.670;2024-01-11T07:17:52;-6.10;99.90
19017;DHT22;9641;51.494;6.670;2024-01-11T07:20:20;-6.10;99.90
19017;DHT22;9641;51.494;6.670;2024-01-11T07:22:46;-6.10;99.90
19017;DHT22;9641;51.494;6.670;2024-01-11T07:25:13;-6.10;99.90
19017;DHT22;9641;51.494;6.670;2024-01-11T07:27:40;-6.10;99.90
19017;DHT22;9641;51.494;6.670;2024-01-11T07:30:09;-6.10;99.90
19017;DHT22;9641;51.494;6.670;2024-01-11T07:32:36;-6.10;99.90
19017;DHT22;9641;51.494;6.670;2024-01-11T07:35:05;-6.00;99.90
19017;DHT22;9641;51.494;6.670;2024-01-11T07:37:33;-6.00;99.90
19017;DHT22;9641;51.494;6.670;2024-01-11T07:40:00;-6.10;99.90
19017;DHT22;9641;51.494;6.670;2024-01-11T07:42:27;-6.00;99.90
19017;DHT22;9641;51.494;6.670;2024-01-11T07:44:54;-6.00;99.90
19017;DHT22;9641;51.494;6.670;2024-01-11T07:47:21;-6.00;99.90
19017;DHT22;9641;51.494;6.670;2024-01-11T07:49:48;-6.00;99.90
19017;DHT22;9641;51.494;6.670;2024-01-11T07:52:16;-5.90;99.90
19017;DHT22;9641;51.494;6.670;2024-01-11T07:54:43;-5.80;99.90
19017;DHT22;9641;51.494;6.670;2024-01-11T07:57:09;-5.80;99.90
19017;DHT22;9641;51.494;6.670;2024-01-11T07:59:36;-5.90;99.90
19017;DHT22;9641;51.494;6.670;2024-01-11T08:02:03;-5.90;99.90
19017;DHT22;9641;51.494;6.670;2024-01-11T08:04:31;-5.90;99.90
19017;DHT22;9641;51.494;6.670;2024-01-11T08:06:58;-5.80;99.90
19017;DHT22;9641;51.494;6.670;2024-01-11T08:09:27;-5.80;99.90
19017;DHT22;9641;51.494;6.670;2024-01-11T08:11:54;-5.70;99.90
19017;DHT22;9641;51.494;6.670;2024-01-11T08:14:21;-5.70;99.90
19017;DHT22;9641;51.494;6.670;2024-01-11T08:16:47;-5.70;99.90
19017;DHT22;9641;51.494;6.670;2024-01-11T08:19:14;-5.70;99.90
19017;DHT22;9641;51.494;6.670;2024-01-11T08:21:42;-5.60;99.90
19017;DHT22;9641;51.494;6.670;2024-01-11T08:24:09;-5.60;99.90
19017;DHT22;9641;51.494;6.670;2024-01-11T08:26:38;-5.60;99.90
19017;DHT22;9641;51.494;6.670;2024-01-11T08:29:05;-5.50;99.90
19017;DHT22;9641;51.494;6.670;2024-01-11T08:31:33;-5.50;99.90
19017;DHT22;9641;51.494;6.670;2024-01-11T08:34:00;-5.40;99.90
19017;DHT22;9641;51.494;6.670;2024-01-11T08:36:31;-5.30;99.90
19017;DHT22;9641;51.494;6.670;2024-01-11T08:38:59;-5.30;99.90
19017;DHT22;9641;51.494;6.670;2024-01-11T08:41:26;-5.20;99.90
19017;DHT22;9641;51.494;6.670;2024-01-11T08:43:54;-5.20;99.90
19017;DHT22;9641;51.494;6.670;2024-01-11T08:46:24;-5.20;99.90
19017;DHT22;9641;51.494;6.670;2024-01-11T08:48:52;-5.10;99.90
19017;DHT22;9641;51.494;6.670;2024-01-11T08:51:19;-5.10;99.90
19017;DHT22;9641;51.494;6.670;2024-01-11T08:53:46;-5.10;99.90
19017;DHT22;9641;51.494;6.670;2024-01-11T08:56:13;-5.00;99.90
19017;DHT22;9641;51.494;6.670;2024-01-11T08:58:42;-5.00;99.90
19017;DHT22;9641;51.494;6.670;2024-01-11T09:01:10;-4.90;99.90
19017;DHT22;9641;51.494;6.670;2024-01-11T09:03:37;-4.90;99.90
19017;DHT22;9641;51.494;6.670;2024-01-11T09:06:04;-4.90;99.90
19017;DHT22;9641;51.494;6.670;2024-01-11T09:08:31;-4.80;99.90
19017;DHT22;9641;51.494;6.670;2024-01-11T09:10:59;-4.80;99.90
19017;DHT22;9641;51.494;6.670;2024-01-11T09:13:26;-4.80;99.90
19017;DHT22;9641;51.494;6.670;2024-01-11T09:15:54;-4.70;99.90
19017;DHT22;9641;51.494;6.670;2024-01-11T09:18:23;-4.60;99.90
19017;DHT22;9641;51.494;6.670;2024-01-11T09:20:50;-4.60;99.90
19017;DHT22;9641;51.494;6.670;2024-01-11T09:23:16;-4.50;99.90
19017;DHT22;9641;51.494;6.670;2024-01-11T09:25:44;-4.50;99.90
19017;DHT22;9641;51.494;6.670;2024-01-11T09:28:10;-4.40;99.90
19017;DHT22;9641;51.494;6.670;2024-01-11T09:30:37;-4.40;99.90
19017;DHT22;9641;51.494;6.670;2024-01-11T09:33:04;-4.40;99.90
19017;DHT22;9641;51.494;6.670;2024-01-11T09:35:33;-4.30;99.90
19017;DHT22;9641;51.494;6.670;2024-01-11T09:38:01;-4.20;99.90
19017;DHT22;9641;51.494;6.670;2024-01-11T09:40:27;-4.20;99.90
19017;DHT22;9641;51.494;6.670;2024-01-11T09:42:54;-4.20;99.90
19017;DHT22;9641;51.494;6.670;2024-01-11T09:45:21;-4.10;99.90
19017;DHT22;9641;51.494;6.670;2024-01-11T09:47:49;-4.10;99.90
19017;DHT22;9641;51.494;6.670;2024-01-11T09:50:18;-4.00;99.90
19017;DHT22;9641;51.494;6.670;2024-01-11T09:52:48;-4.00;99.90
19017;DHT22;9641;51.494;6.670;2024-01-11T09:55:15;-3.90;99.90
19017;DHT22;9641;51.494;6.670;2024-01-11T09:57:44;-3.80;99.90
19017;DHT22;9641;51.494;6.670;2024-01-11T10:00:13;-3.70;99.90
19017;DHT22;9641;51.494;6.670;2024-01-11T10:02:43;-3.60;99.90
19017;DHT22;9641;51.494;6.670;2024-01-11T10:05:11;-3.50;99.90
19017;DHT22;9641;51.494;6.670;2024-01-11T10:07:39;-3.50;99.90
19017;DHT22;9641;51.494;6.670;2024-01-11T10:10:09;-3.40;99.90
19017;DHT22;9641;51.494;6.670;2024-01-11T10:12:37;-3.30;94.90
19017;DHT22;9641;51.494;6.670;2024-01-11T10:15:05;-3.20;39.00
19017;DHT22;9641;51.494;6.670;2024-01-11T10:17:35;-3.20;31.90
19017;DHT22;9641;51.494;6.670;2024-01-11T10:20:02;-3.00;28.90
19017;DHT22;9641;51.494;6.670;2024-01-11T10:22:29;-3.00;1.00
19017;DHT22;9641;51.494;6.670;2024-01-11T10:25:09;-2.90;1.00
19017;DHT22;9641;51.494;6.670;2024-01-11T10:27:38;-2.90;1.00
19017;DHT22;9641;51.494;6.670;2024-01-11T10:30:06;-2.80;1.00
19017;DHT22;9641;51.494;6.670;2024-01-11T10:32:33;-2.70;1.00
19017;DHT22;9641;51.494;6.670;2024-01-11T10:35:01;-2.20;1.00
19017;DHT22;9641;51.494;6.670;2024-01-11T10:37:31;-0.90;1.00
19017;DHT22;9641;51.494;6.670;2024-01-11T10:40:02;0.30;1.00
19017;DHT22;9641;51.494;6.670;2024-01-11T10:42:31;1.70;1.00
19017;DHT22;9641;51.494;6.670;2024-01-11T10:44:59;2.40;1.00
19017;DHT22;9641;51.494;6.670;2024-01-11T10:47:30;3.00;1.00
19017;DHT22;9641;51.494;6.670;2024-01-11T10:50:01;3.50;1.00
19017;DHT22;9641;51.494;6.670;2024-01-11T10:52:42;3.50;99.90
19017;DHT22;9641;51.494;6.670;2024-01-11T10:55:10;4.10;99.90
19017;DHT22;9641;51.494;6.670;2024-01-11T10:57:39;4.50;1.00
19017;DHT22;9641;51.494;6.670;2024-01-11T11:00:07;5.00;1.00
19017;DHT22;9641;51.494;6.670;2024-01-11T11:02:37;4.90;1.00
19017;DHT22;9641;51.494;6.670;2024-01-11T11:05:06;4.90;1.00
19017;DHT22;9641;51.494;6.670;2024-01-11T11:07:35;5.20;1.00
19017;DHT22;9641;51.494;6.670;2024-01-11T11:10:06;4.70;1.00
19017;DHT22;9641;51.494;6.670;2024-01-11T11:12:35;4.80;1.00
19017;DHT22;9641;51.494;6.670;2024-01-11T11:15:08;4.90;1.00
19017;DHT22;9641;51.494;6.670;2024-01-11T11:17:36;4.90;1.00
19017;DHT22;9641;51.494;6.670;2024-01-11T11:20:05;5.60;1.00
19017;DHT22;9641;51.494;6.670;2024-01-11T11:22:34;5.50;1.00
19017;DHT22;9641;51.494;6.670;2024-01-11T11:25:07;6.20;1.00
19017;DHT22;9641;51.494;6.670;2024-01-11T11:27:35;6.80;1.00
19017;DHT22;9641;51.494;6.670;2024-01-11T11:30:03;7.00;1.00
19017;DHT22;9641;51.494;6.670;2024-01-11T11:32:42;6.90;1.00
19017;DHT22;9641;51.494;6.670;2024-01-11T11:35:10;6.30;1.00
19017;DHT22;9641;51.494;6.670;2024-01-11T11:37:37;6.10;1.00
19017;DHT22;9641;51.494;6.670;2024-01-11T11:40:05;7.60;1.00
19017;DHT22;9641;51.494;6.670;2024-01-11T11:42:34;8.80;1.00
19017;DHT22;9641;51.494;6.670;2024-01-11T11:45:01;8.30;99.90
19017;DHT22;9641;51.494;6.670;2024-01-11T11:47:34;9.30;99.90
19017;DHT22;9641;51.494;6.670;2024-01-11T11:50:07;9.90;99.90
19017;DHT22;9641;51.494;6.670;2024-01-11T11:52:38;9.50;99.90
19017;DHT22;9641;51.494;6.670;2024-01-11T11:55:07;9.00;99.90
19017;DHT22;9641;51.494;6.670;2024-01-11T11:57:35;8.40;99.90
19017;DHT22;9641;51.494;6.670;2024-01-11T12:00:02;8.20;99.90
19017;DHT22;9641;51.494;6.670;2024-01-11T12:02:37;8.00;99.90
19017;DHT22;9641;51.494;6.670;2024-01-11T12:05:06;8.30;99.90
19017;DHT22;9641;51.494;6.670;2024-01-11T12:07:33;7.80;99.90
19017;DHT22;9641;51.494;6.670;2024-01-11T12:10:00;6.70;99.90
19017;DHT22;9641;51.494;6.670;2024-01-11T12:12:27;7.20;99.90
19017;DHT22;9641;51.494;6.670;2024-01-11T12:14:54;7.30;99.90
19017;DHT22;9641;51.494;6.670;2024-01-11T12:17:21;7.50;99.90
19017;DHT22;9641;51.494;6.670;2024-01-11T12:19:48;8.30;99.90
19017;DHT22;9641;51.494;6.670;2024-01-11T12:22:19;8.40;99.90
19017;DHT22;9641;51.494;6.670;2024-01-11T12:24:46;7.50;99.90
19017;DHT22;9641;51.494;6.670;2024-01-11T12:27:13;8.10;99.90
19017;DHT22;9641;51.494;6.670;2024-01-11T12:29:40;9.70;99.90
19017;DHT22;9641;51.494;6.670;2024-01-11T12:32:07;9.80;99.90
19017;DHT22;9641;51.494;6.670;2024-01-11T12:34:37;9.30;99.90
19017;DHT22;9641;51.494;6.670;2024-01-11T12:37:05;8.60;99.90
19017;DHT22;9641;51.494;6.670;2024-01-11T12:39:34;8.10;99.90
19017;DHT22;9641;51.494;6.670;2024-01-11T12:42:04;8.10;99.90
19017;DHT22;9641;51.494;6.670;2024-01-11T12:44:31;8.90;99.90
19017;DHT22;9641;51.494;6.670;2024-01-11T12:46:58;8.90;99.90
19017;DHT22;9641;51.494;6.670;2024-01-11T12:49:25;8.40;99.90
19017;DHT22;9641;51.494;6.670;2024-01-11T12:51:53;8.50;99.90
19017;DHT22;9641;51.494;6.670;2024-01-11T12:54:20;8.80;99.90
19017;DHT22;9641;51.494;6.670;2024-01-11T12:56:49;8.90;99.90
19017;DHT22;9641;51.494;6.670;2024-01-11T12:59:15;8.30;99.90
19017;DHT22;9641;51.494;6.670;2024-01-11T13:01:42;8.20;99.90
19017;DHT22;9641;51.494;6.670;2024-01-11T13:04:10;7.50;99.90
19017;DHT22;9641;51.494;6.670;2024-01-11T13:06:37;7.40;99.90
19017;DHT22;9641;51.494;6.670;2024-01-11T13:09:04;8.10;99.90
19017;DHT22;9641;51.494;6.670;2024-01-11T13:11:33;7.80;99.90
19017;DHT22;9641;51.494;6.670;2024-01-11T13:14:01;8.10;99.90
19017;DHT22;9641;51.494;6.670;2024-01-11T13:16:32;8.50;99.90
19017;DHT22;9641;51.494;6.670;2024-01-11T13:18:59;9.30;99.90
19017;DHT22;9641;51.494;6.670;2024-01-11T13:21:26;9.30;99.90
19017;DHT22;9641;51.494;6.670;2024-01-11T13:23:53;9.20;99.90
19017;DHT22;9641;51.494;6.670;2024-01-11T13:26:20;9.20;99.90
19017;DHT22;9641;51.494;6.670;2024-01-11T13:28:47;8.20;99.90
19017;DHT22;9641;51.494;6.670;2024-01-11T13:31:15;7.50;99.90
19017;DHT22;9641;51.494;6.670;2024-01-11T13:33:42;7.70;99.90
19017;DHT22;9641;51.494;6.670;2024-01-11T13:36:09;8.10;99.90
19017;DHT22;9641;51.494;6.670;2024-01-11T13:38:36;8.50;99.90
19017;DHT22;9641;51.494;6.670;2024-01-11T13:41:03;8.40;99.90
19017;DHT22;9641;51.494;6.670;2024-01-11T13:43:30;9.10;99.90
19017;DHT22;9641;51.494;6.670;2024-01-11T13:45:57;9.50;99.90
19017;DHT22;9641;51.494;6.670;2024-01-11T13:48:25;9.80;99.90
19017;DHT22;9641;51.494;6.670;2024-01-11T13:50:52;10.50;99.90
19017;DHT22;9641;51.494;6.670;2024-01-11T13:53:19;11.00;99.90
19017;DHT22;9641;51.494;6.670;2024-01-11T13:55:46;9.80;99.90
19017;DHT22;9641;51.494;6.670;2024-01-11T13:58:14;9.50;99.90
19017;DHT22;9641;51.494;6.670;2024-01-11T14:00:41;9.60;99.90
19017;DHT22;9641;51.494;6.670;2024-01-11T14:03:08;9.20;99.90
19017;DHT22;9641;51.494;6.670;2024-01-11T14:05:38;8.40;99.90
19017;DHT22;9641;51.494;6.670;2024-01-11T14:08:05;7.40;99.90
19017;DHT22;9641;51.494;6.670;2024-01-11T14:10:33;7.00;99.90
19017;DHT22;9641;51.494;6.670;2024-01-11T14:13:00;7.20;99.90
19017;DHT22;9641;51.494;6.670;2024-01-11T14:15:27;7.50;99.90
19017;DHT22;9641;51.494;6.670;2024-01-11T14:17:55;7.00;99.90
19017;DHT22;9641;51.494;6.670;2024-01-11T14:20:21;5.90;99.90
19017;DHT22;9641;51.494;6.670;2024-01-11T14:22:50;5.40;99.90
19017;DHT22;9641;51.494;6.670;2024-01-11T14:25:18;4.90;99.90
19017;DHT22;9641;51.494;6.670;2024-01-11T14:27:46;5.20;1.00
19017;DHT22;9641;51.494;6.670;2024-01-11T14:30:14;5.50;1.00
19017;DHT22;9641;51.494;6.670;2024-01-11T14:32:41;5.70;1.00
19017;DHT22;9641;51.494;6.670;2024-01-11T14:35:09;5.80;1.00
19017;DHT22;9641;51.494;6.670;2024-01-11T14:37:38;5.70;1.00
19017;DHT22;9641;51.494;6.670;2024-01-11T14:40:08;4.50;1.00
19017;DHT22;9641;51.494;6.670;2024-01-11T14:42:36;4.80;1.00
19017;DHT22;9641;51.494;6.670;2024-01-11T14:45:04;4.70;1.00
19017;DHT22;9641;51.494;6.670;2024-01-11T14:47:31;5.10;1.00
19017;DHT22;9641;51.494;6.670;2024-01-11T14:49:58;4.80;1.00
19017;DHT22;9641;51.494;6.670;2024-01-11T14:52:25;3.90;12.10
19017;DHT22;9641;51.494;6.670;2024-01-11T14:54:52;2.70;1.00
19017;DHT22;9641;51.494;6.670;2024-01-11T14:57:21;1.80;1.00
19017;DHT22;9641;51.494;6.670;2024-01-11T14:59:49;1.20;1.00
19017;DHT22;9641;51.494;6.670;2024-01-11T15:02:16;0.80;1.00
19017;DHT22;9641;51.494;6.670;2024-01-11T15:04:42;0.70;99.90
19017;DHT22;9641;51.494;6.670;2024-01-11T15:07:09;0.50;1.00
19017;DHT22;9641;51.494;6.670;2024-01-11T15:09:37;0.50;1.00
19017;DHT22;9641;51.494;6.670;2024-01-11T15:12:04;0.30;1.00
19017;DHT22;9641;51.494;6.670;2024-01-11T15:14:32;0.30;2.70
19017;DHT22;9641;51.494;6.670;2024-01-11T15:16:59;0.20;67.70
19017;DHT22;9641;51.494;6.670;2024-01-11T15:19:28;0.10;99.90
19017;DHT22;9641;51.494;6.670;2024-01-11T15:21:55;0.00;99.90
19017;DHT22;9641;51.494;6.670;2024-01-11T15:24:22;-0.10;99.90
19017;DHT22;9641;51.494;6.670;2024-01-11T15:26:48;-0.10;99.90
19017;DHT22;9641;51.494;6.670;2024-01-11T15:29:16;-0.10;99.90
19017;DHT22;9641;51.494;6.670;2024-01-11T15:31:44;-0.20;99.90
19017;DHT22;9641;51.494;6.670;2024-01-11T15:34:11;-0.30;99.90
19017;DHT22;9641;51.494;6.670;2024-01-11T15:36:38;-0.40;99.90
19017;DHT22;9641;51.494;6.670;2024-01-11T15:39:06;-0.40;99.90
19017;DHT22;9641;51.494;6.670;2024-01-11T15:41:33;-0.50;99.90
19017;DHT22;9641;51.494;6.670;2024-01-11T15:44:00;-0.60;99.90
19017;DHT22;9641;51.494;6.670;2024-01-11T15:46:27;-0.60;99.90
19017;DHT22;9641;51.494;6.670;2024-01-11T15:48:56;-0.60;99.90
19017;DHT22;9641;51.494;6.670;2024-01-11T15:51:22;-0.60;99.90
19017;DHT22;9641;51.494;6.670;2024-01-11T15:53:49;-0.50;99.90